Time;durP1;ratioP1;P1;durP2;ratioP2;P2;SDS_P1;SDS_P2;PMS_P1;PMS_P2;Temp;Humidity;BMP_temperature;BMP_pressure;BME280_temperature;BME280_humidity;BME280_pressure;Samples;Min_cycle;Max_cycle;Signal;HPM_P1;HPM_P2
2022/10/11 00:01:20;;;;;;;;;;;;;;;12.90;66.89;101646.47;5060183;28;19939;-52
2022/10/11 00:03:45;;;;;;;;;;;;;;;12.88;66.49;101653.63;5062452;28;19931;-51
2022/10/11 00:06:10;;;;;;;;;;;;;;;12.85;66.15;101663.50;5061249;28;20018;-52
2022/10/11 00:08:36;;;;;;;;;;;;;;;12.81;66.03;101662.81;5062234;28;19928;-52
2022/10/11 00:11:03;;;;;;;;;;;;;;;12.76;65.72;101680.69;5064344;28;20400;-51
2022/10/11 00:13:28;;;;;;;;;;;;;;;12.71;65.87;101673.00;5066763;28;19924;-51
2022/10/11 00:15:54;;;;;;;;;;;;;;;12.69;65.87;101679.31;5069139;28;19989;-51
2022/10/11 00:18:20;;;;;;;;;;;;;;;12.68;65.80;101690.81;5065211;28;20412;-51
2022/10/11 00:20:45;;;;;;;;;;;;;;;12.66;65.74;101693.50;5066548;28;19933;-50
2022/10/11 00:23:10;;;;;;;;;;;;;;;12.65;65.56;101695.31;5066495;28;21375;-50
2022/10/11 00:25:36;;;;;;;;;;;;;;;12.63;65.49;101702.44;5065423;28;20641;-51
2022/10/11 00:28:01;;;;;;;;;;;;;;;12.61;65.60;101706.09;5064845;28;19927;-50
2022/10/11 00:30:26;;;;;;;;;;;;;;;12.62;65.42;101710.44;5062598;28;19929;-51
2022/10/11 00:32:52;;;;;;;;;;;;;;;12.61;65.44;101714.88;5066195;28;19924;-51
2022/10/11 00:35:17;;;;;;;;;;;;;;;12.56;65.30;101716.03;5066023;28;19931;-50
2022/10/11 00:37:42;;;;;;;;;;;;;;;12.54;65.19;101723.19;5065791;28;19929;-50
2022/10/11 00:40:12;;;;;;;;;;;;;;;12.52;65.51;101720.63;5064138;28;19973;-50
2022/10/11 00:42:37;;;;;;;;;;;;;;;12.50;65.38;101723.31;5060977;28;19935;-52
2022/10/11 00:45:21;;;;;;;;;;;;;;;12.48;65.16;101730.47;5063674;28;19925;-52
2022/10/11 00:47:46;;;;;;;;;;;;;;;12.49;65.28;101731.31;5070899;28;20450;-49
2022/10/11 00:50:12;;;;;;;;;;;;;;;12.48;65.37;101733.09;5069578;28;19928;-51
2022/10/11 00:52:39;;;;;;;;;;;;;;;12.48;65.20;101730.47;5074861;28;19928;-51
2022/10/11 00:55:06;;;;;;;;;;;;;;;12.45;65.04;101730.63;5068503;28;19923;-53
2022/10/11 00:57:33;;;;;;;;;;;;;;;12.39;65.02;101743.28;5069892;28;19920;-51
2022/10/11 00:59:59;;;;;;;;;;;;;;;12.32;65.25;101748.00;5068907;28;20030;-51
2022/10/11 01:02:25;;;;;;;;;;;;;;;12.28;65.39;101742.00;5066824;28;20074;-54
2022/10/11 01:04:50;;;;;;;;;;;;;;;12.28;65.19;101730.63;5066672;28;20027;-51
2022/10/11 01:07:17;;;;;;;;;;;;;;;12.29;65.21;101740.25;5061364;28;20005;-51
2022/10/11 01:09:42;;;;;;;;;;;;;;;12.24;65.19;101737.84;5058747;28;19928;-51
2022/10/11 01:12:14;;;;;;;;;;;;;;;12.20;65.18;101742.38;5063342;28;19925;-49
2022/10/11 01:14:42;;;;;;;;;;;;;;;12.16;65.08;101754.03;5062504;28;19947;-51
2022/10/11 01:17:08;;;;;;;;;;;;;;;12.10;65.07;101751.69;5061211;28;21021;-51
2022/10/11 01:19:33;;;;;;;;;;;;;;;12.08;65.30;101752.69;5065948;28;19932;-51
2022/10/11 01:22:07;;;;;;;;;;;;;;;12.04;65.06;101758.09;5069318;28;20271;-51
2022/10/11 01:24:51;;;;;;;;;;;;;;;11.99;65.15;101764.53;5063363;28;20010;-50
2022/10/11 01:27:24;;;;;;;;;;;;;;;11.90;65.37;101769.28;5062482;28;19939;-51
2022/10/11 01:30:09;;;;;;;;;;;;;;;11.89;65.43;101769.34;5065501;28;20808;-51
2022/10/11 01:32:53;;;;;;;;;;;;;;;11.84;65.39;101772.22;5059675;28;19993;-51
2022/10/11 01:35:21;;;;;;;;;;;;;;;11.82;65.47;101776.69;5067586;28;19939;-51
2022/10/11 01:38:12;;;;;;;;;;;;;;;11.84;65.28;101777.50;5064651;28;19928;-51
2022/10/11 01:40:41;;;;;;;;;;;;;;;11.84;65.21;101787.16;5057288;28;20428;-51
2022/10/11 01:43:08;;;;;;;;;;;;;;;11.79;65.28;101791.81;5057480;28;20409;-51
2022/10/11 01:45:33;;;;;;;;;;;;;;;11.76;65.32;101784.88;5055890;28;19932;-51
2022/10/11 01:48:02;;;;;;;;;;;;;;;11.73;65.42;101791.16;5052076;28;19924;-51
2022/10/11 01:50:34;;;;;;;;;;;;;;;11.69;65.46;101794.84;5054973;28;20400;-50
2022/10/11 01:53:06;;;;;;;;;;;;;;;11.66;65.67;101804.69;5058467;28;19924;-50
2022/10/11 01:55:43;;;;;;;;;;;;;;;11.65;65.70;101792.44;5060486;28;20978;-50
2022/10/11 01:58:17;;;;;;;;;;;;;;;11.65;65.69;101802.97;5053963;28;19932;-51
2022/10/11 02:00:56;;;;;;;;;;;;;;;11.62;65.60;101792.56;5057306;28;19925;-50
2022/10/11 02:03:32;;;;;;;;;;;;;;;11.63;65.71;101800.44;5050941;28;19924;-51
2022/10/11 02:06:10;;;;;;;;;;;;;;;11.68;65.96;101805.47;5051846;28;19916;-50
2022/10/11 02:08:35;;;;;;;;;;;;;;;11.69;65.72;101810.69;5057672;28;19994;-51
2022/10/11 02:11:06;;;;;;;;;;;;;;;11.70;65.80;101806.28;5052745;28;20389;-51
2022/10/11 02:13:34;;;;;;;;;;;;;;;11.67;65.86;101806.41;5054583;28;19939;-54
2022/10/11 02:16:01;;;;;;;;;;;;;;;11.66;66.02;101809.97;5051022;28;19924;-50
2022/10/11 02:18:31;;;;;;;;;;;;;;;11.68;65.71;101816.03;5054388;28;20423;-50
2022/10/11 02:20:57;;;;;;;;;;;;;;;11.67;65.75;101816.94;5054042;28;19971;-50
2022/10/11 02:23:27;;;;;;;;;;;;;;;11.61;66.04;101827.75;5059353;28;20385;-52
2022/10/11 02:25:53;;;;;;;;;;;;;;;11.57;66.15;101822.63;5053809;28;19917;-53
2022/10/11 02:28:27;;;;;;;;;;;;;;;11.57;66.16;101822.63;5055105;28;19935;-50
2022/10/11 02:30:54;;;;;;;;;;;;;;;11.55;66.11;101832.41;5058009;28;19916;-52
2022/10/11 02:33:22;;;;;;;;;;;;;;;11.55;66.50;101828.91;5055281;28;19960;-50
2022/10/11 02:35:52;;;;;;;;;;;;;;;11.53;66.63;101836.88;5060133;28;20446;-51
2022/10/11 02:38:20;;;;;;;;;;;;;;;11.53;66.56;101842.16;5060890;28;20027;-50
2022/10/11 02:40:49;;;;;;;;;;;;;;;11.52;66.52;101845.72;5054597;28;19929;-50
2022/10/11 02:43:24;;;;;;;;;;;;;;;11.52;66.71;101840.44;5052268;28;19946;-51
2022/10/11 02:45:58;;;;;;;;;;;;;;;11.51;66.71;101846.63;5062352;28;20301;-51
2022/10/11 02:48:26;;;;;;;;;;;;;;;11.51;66.63;101849.28;5055535;28;20007;-51
2022/10/11 02:50:52;;;;;;;;;;;;;;;11.48;66.57;101844.13;5054460;28;19924;-50
2022/10/11 02:53:18;;;;;;;;;;;;;;;11.46;66.69;101853.03;5055822;28;20014;-51
2022/10/11 02:55:43;;;;;;;;;;;;;;;11.43;66.83;101856.63;5053233;28;19920;-52
2022/10/11 02:58:08;;;;;;;;;;;;;;;11.39;66.92;101855.09;5055185;28;19931;-51
2022/10/11 03:00:33;;;;;;;;;;;;;;;11.38;66.94;101858.63;5057187;28;19971;-50
2022/10/11 03:02:59;;;;;;;;;;;;;;;11.38;67.10;101863.91;5056515;28;19917;-51
2022/10/11 03:05:24;;;;;;;;;;;;;;;11.41;66.99;101869.06;5056039;28;19924;-53
2022/10/11 03:07:49;;;;;;;;;;;;;;;11.43;66.99;101872.44;5054587;28;19927;-51
2022/10/11 03:10:15;;;;;;;;;;;;;;;11.40;67.13;101875.25;5054445;28;20405;-50
2022/10/11 03:12:40;;;;;;;;;;;;;;;11.36;67.10;101882.41;5055162;28;19920;-50
2022/10/11 03:15:06;;;;;;;;;;;;;;;11.31;67.16;101878.25;5058111;28;20270;-50
2022/10/11 03:17:31;;;;;;;;;;;;;;;11.25;67.20;101890.78;5054812;28;20344;-50
2022/10/11 03:19:57;;;;;;;;;;;;;;;11.23;67.44;101892.63;5051598;28;19962;-51
2022/10/11 03:22:22;;;;;;;;;;;;;;;11.24;67.35;101896.97;5052068;28;20404;-52
2022/10/11 03:24:47;;;;;;;;;;;;;;;11.25;67.50;101898.69;5058991;28;19951;-51
2022/10/11 03:27:13;;;;;;;;;;;;;;;11.22;67.32;101896.19;5059168;28;19931;-50
2022/10/11 03:29:38;;;;;;;;;;;;;;;11.21;67.43;101899.72;5057677;28;20026;-51
2022/10/11 03:32:03;;;;;;;;;;;;;;;11.20;67.28;101900.66;5055005;28;19924;-53
2022/10/11 03:34:29;;;;;;;;;;;;;;;11.18;67.40;101913.03;5060986;28;19929;-50
2022/10/11 03:36:54;;;;;;;;;;;;;;;11.18;67.45;101915.66;5052592;28;20036;-51
2022/10/11 03:39:19;;;;;;;;;;;;;;;11.16;67.51;101912.22;5050129;28;19931;-53
2022/10/11 03:41:45;;;;;;;;;;;;;;;11.15;67.52;101917.56;5062788;28;19932;-50
2022/10/11 03:44:10;;;;;;;;;;;;;;;11.11;67.37;101922.97;5060180;28;20032;-51
2022/10/11 03:46:35;;;;;;;;;;;;;;;11.08;67.45;101924.88;5060541;28;20391;-51
2022/10/11 03:49:01;;;;;;;;;;;;;;;11.07;67.47;101923.16;5061578;28;19920;-50
2022/10/11 03:51:26;;;;;;;;;;;;;;;11.05;67.63;101925.00;5061054;28;19925;-51
2022/10/11 03:53:51;;;;;;;;;;;;;;;11.06;67.77;101931.97;5063898;28;20328;-50
2022/10/11 03:56:17;;;;;;;;;;;;;;;11.04;67.64;101933.81;5058246;28;19932;-50
2022/10/11 03:58:42;;;;;;;;;;;;;;;11.00;67.76;101926.94;5060822;28;19932;-51
2022/10/11 04:01:08;;;;;;;;;;;;;;;10.98;67.75;101934.94;5061366;28;19974;-50
2022/10/11 04:03:33;;;;;;;;;;;;;;;10.97;67.82;101939.31;5062000;28;19924;-50
2022/10/11 04:05:58;;;;;;;;;;;;;;;10.97;67.57;101944.59;5063261;28;19947;-50
2022/10/11 04:08:24;;;;;;;;;;;;;;;10.96;67.76;101948.16;5058965;28;20393;-50
2022/10/11 04:10:49;;;;;;;;;;;;;;;10.94;67.68;101952.63;5061157;28;19977;-50
2022/10/11 04:13:14;;;;;;;;;;;;;;;10.93;67.72;101942.13;5060208;28;19921;-50
2022/10/11 04:15:42;;;;;;;;;;;;;;;10.90;67.67;101951.03;5059938;28;20023;-51
2022/10/11 04:18:08;;;;;;;;;;;;;;;10.89;67.76;101954.59;5060762;28;19931;-51
2022/10/11 04:20:34;;;;;;;;;;;;;;;10.86;67.75;101952.06;5063230;28;19932;-51
2022/10/11 04:22:59;;;;;;;;;;;;;;;10.86;67.66;101957.31;5063690;28;19928;-50
2022/10/11 04:25:25;;;;;;;;;;;;;;;10.83;67.94;101955.69;5055380;28;19925;-50
2022/10/11 04:27:50;;;;;;;;;;;;;;;10.83;67.88;101954.81;5060801;28;19928;-52
2022/10/11 04:30:15;;;;;;;;;;;;;;;10.82;67.88;101966.25;5051005;28;19920;-51
2022/10/11 04:32:41;;;;;;;;;;;;;;;10.81;67.92;101964.56;5053685;28;19931;-53
2022/10/11 04:35:06;;;;;;;;;;;;;;;10.81;67.90;101969.84;5057003;28;19922;-49
2022/10/11 04:37:32;;;;;;;;;;;;;;;10.79;67.96;101971.66;5052256;28;19931;-52
2022/10/11 04:39:57;;;;;;;;;;;;;;;10.77;68.07;101971.72;5059232;28;20014;-52
2022/10/11 04:42:22;;;;;;;;;;;;;;;10.75;68.11;101976.16;5059732;28;20361;-51
2022/10/11 04:44:48;;;;;;;;;;;;;;;10.74;68.06;101979.72;5049029;28;19928;-51
2022/10/11 04:47:13;;;;;;;;;;;;;;;10.73;68.00;101979.78;5047818;28;19920;-50
2022/10/11 04:49:38;;;;;;;;;;;;;;;10.72;67.94;101991.25;5050585;28;20673;-50
2022/10/11 04:52:04;;;;;;;;;;;;;;;10.70;68.14;101988.69;5048212;28;19924;-51
2022/10/11 04:54:29;;;;;;;;;;;;;;;10.70;68.18;101993.94;5054880;28;19946;-50
2022/10/11 04:56:54;;;;;;;;;;;;;;;10.69;68.00;101994.84;5062643;28;20428;-51
2022/10/11 04:59:19;;;;;;;;;;;;;;;10.68;68.20;102004.50;5051295;28;22570;-54
2022/10/11 05:01:45;;;;;;;;;;;;;;;10.69;68.08;102002.75;5058483;28;19932;-51
2022/10/11 05:04:10;;;;;;;;;;;;;;;10.68;67.92;101995.78;5074211;28;19963;-51
2022/10/11 05:06:35;;;;;;;;;;;;;;;10.65;67.86;101999.38;5065808;28;19920;-52
2022/10/11 05:09:01;;;;;;;;;;;;;;;10.65;67.91;102007.28;5067104;28;20400;-49
2022/10/11 05:11:26;;;;;;;;;;;;;;;10.64;67.88;102008.19;5061510;28;19943;-52
2022/10/11 05:13:51;;;;;;;;;;;;;;;10.61;67.87;102005.69;5066989;28;20400;-50
2022/10/11 05:16:17;;;;;;;;;;;;;;;10.60;67.88;102017.13;5064985;28;20420;-52
2022/10/11 05:18:42;;;;;;;;;;;;;;;10.57;68.00;102019.84;5066832;28;19950;-51
2022/10/11 05:21:13;;;;;;;;;;;;;;;10.54;68.11;102025.22;5073765;28;19928;-50
2022/10/11 05:23:38;;;;;;;;;;;;;;;10.52;68.08;102021.78;5068924;28;19916;-50
2022/10/11 05:26:04;;;;;;;;;;;;;;;10.51;68.02;102030.63;5068687;28;19928;-50
2022/10/11 05:28:29;;;;;;;;;;;;;;;10.48;68.07;102033.38;5062817;28;19997;-51
2022/10/11 05:30:54;;;;;;;;;;;;;;;10.47;68.16;102035.13;5067566;28;19917;-50
2022/10/11 05:33:19;;;;;;;;;;;;;;;10.48;68.11;102047.38;5066398;28;19948;-52
2022/10/11 05:35:45;;;;;;;;;;;;;;;10.46;68.11;102040.47;5069294;28;19921;-50
2022/10/11 05:38:10;;;;;;;;;;;;;;;10.44;68.24;102045.75;5064431;28;19935;-51
2022/10/11 05:40:37;;;;;;;;;;;;;;;10.43;68.11;102046.69;5069221;28;20345;-52
2022/10/11 05:43:02;;;;;;;;;;;;;;;10.42;68.19;102058.13;5063592;28;20307;-52
2022/10/11 05:45:28;;;;;;;;;;;;;;;10.43;68.17;102057.22;5067479;28;20590;-52
2022/10/11 05:47:53;;;;;;;;;;;;;;;10.43;68.31;102064.25;5068260;28;19977;-51
2022/10/11 05:50:18;;;;;;;;;;;;;;;10.43;68.19;102059.84;5068851;28;19931;-51
2022/10/11 05:52:43;;;;;;;;;;;;;;;10.43;68.09;102070.38;5064269;28;20251;-50
2022/10/11 05:55:09;;;;;;;;;;;;;;;10.42;68.21;102073.94;5068224;28;19940;-53
2022/10/11 05:57:34;;;;;;;;;;;;;;;10.42;68.15;102065.16;5064037;28;20374;-50
2022/10/11 05:59:59;;;;;;;;;;;;;;;10.42;68.41;102078.31;5065509;28;20013;-50
2022/10/11 06:02:25;;;;;;;;;;;;;;;10.42;68.22;102088.84;5064969;28;19951;-53
2022/10/11 06:04:50;;;;;;;;;;;;;;;10.41;68.34;102090.63;5067656;28;19967;-52
2022/10/11 06:07:15;;;;;;;;;;;;;;;10.41;68.36;102098.53;5065285;28;19924;-51
2022/10/11 06:09:41;;;;;;;;;;;;;;;10.40;68.39;102095.91;5066600;28;19927;-50
2022/10/11 06:12:06;;;;;;;;;;;;;;;10.39;68.16;102099.47;5067575;28;19920;-51
2022/10/11 06:14:31;;;;;;;;;;;;;;;10.37;68.29;102100.34;5065757;28;20386;-51
2022/10/11 06:16:57;;;;;;;;;;;;;;;10.42;68.45;102109.88;5066272;28;19933;-52
2022/10/11 06:19:22;;;;;;;;;;;;;;;10.41;68.49;102109.03;5071768;28;20282;-51
2022/10/11 06:21:47;;;;;;;;;;;;;;;10.42;68.49;102110.75;5067100;28;19956;-53
2022/10/11 06:24:13;;;;;;;;;;;;;;;10.44;68.47;102119.44;5065355;28;19947;-52
2022/10/11 06:26:39;;;;;;;;;;;;;;;10.43;68.27;102114.25;5063347;28;20468;-51
2022/10/11 06:29:04;;;;;;;;;;;;;;;10.44;68.25;102126.50;5065631;28;20389;-51
2022/10/11 06:31:30;;;;;;;;;;;;;;;10.46;68.51;102132.56;5066308;28;19997;-54
2022/10/11 06:33:56;;;;;;;;;;;;;;;10.46;68.54;102127.31;5066537;28;19965;-53
2022/10/11 06:36:37;;;;;;;;;;;;;;;10.50;68.46;102128.91;5063682;28;20352;-51
2022/10/11 06:39:03;;;;;;;;;;;;;;;10.50;68.35;102132.41;5064548;28;19928;-53
2022/10/11 06:41:29;;;;;;;;;;;;;;;10.49;68.40;102133.31;5066086;28;19990;-52
2022/10/11 06:43:54;;;;;;;;;;;;;;;10.51;68.42;102138.53;5064051;28;19920;-52
2022/10/11 06:46:21;;;;;;;;;;;;;;;10.51;68.35;102134.13;5067416;28;20005;-52
2022/10/11 06:48:47;;;;;;;;;;;;;;;10.51;68.46;102141.16;5066950;28;19946;-53
2022/10/11 06:51:13;;;;;;;;;;;;;;;10.51;68.63;102151.69;5067119;28;19920;-52
2022/10/11 06:53:39;;;;;;;;;;;;;;;10.47;68.75;102150.06;5065537;28;19921;-54
2022/10/11 06:56:05;;;;;;;;;;;;;;;10.47;68.67;102148.28;5071707;28;20412;-50
2022/10/11 06:58:30;;;;;;;;;;;;;;;10.48;68.80;102147.38;5066490;28;19924;-51
2022/10/11 07:01:19;;;;;;;;;;;;;;;10.50;68.86;102150.81;5064744;28;20035;-52
2022/10/11 07:03:44;;;;;;;;;;;;;;;10.54;68.79;102156.81;5063986;28;19930;-52
2022/10/11 07:06:12;;;;;;;;;;;;;;;10.55;68.82;102158.53;5064900;28;19924;-53
2022/10/11 07:08:37;;;;;;;;;;;;;;;10.58;68.71;102162.88;5064792;28;19920;-50
2022/10/11 07:11:04;;;;;;;;;;;;;;;10.63;68.71;102172.31;5064816;28;19924;-51
2022/10/11 07:13:29;;;;;;;;;;;;;;;10.68;68.69;102174.78;5065206;28;19924;-52
2022/10/11 07:15:55;;;;;;;;;;;;;;;10.70;68.88;102167.69;5060433;28;19924;-52
2022/10/11 07:18:21;;;;;;;;;;;;;;;10.76;68.85;102169.25;5068520;28;19916;-51
2022/10/11 07:20:46;;;;;;;;;;;;;;;10.80;68.88;102174.34;5065729;28;19929;-51
2022/10/11 07:23:11;;;;;;;;;;;;;;;10.83;68.79;102173.34;5064980;28;21169;-52
2022/10/11 07:25:37;;;;;;;;;;;;;;;10.86;68.71;102185.56;5061697;28;19946;-50
2022/10/11 07:28:02;;;;;;;;;;;;;;;10.88;68.75;102184.59;5069506;28;19961;-52
2022/10/11 07:30:27;;;;;;;;;;;;;;;10.92;68.79;102188.84;5063524;28;19920;-50
2022/10/11 07:32:53;;;;;;;;;;;;;;;10.96;68.75;102190.47;5066529;28;20328;-54
2022/10/11 07:35:18;;;;;;;;;;;;;;;11.01;68.66;102192.03;5064898;28;20531;-50
2022/10/11 07:37:43;;;;;;;;;;;;;;;11.05;68.48;102191.88;5065731;28;19976;-52
2022/10/11 07:40:10;;;;;;;;;;;;;;;11.08;68.51;102202.31;5064604;28;20436;-51
2022/10/11 07:42:35;;;;;;;;;;;;;;;11.10;68.24;102202.25;5066075;28;20366;-53
2022/10/11 07:45:00;;;;;;;;;;;;;;;11.11;68.48;102209.25;5065524;28;20206;-51
2022/10/11 07:47:26;;;;;;;;;;;;;;;11.12;68.43;102192.50;5061486;28;19924;-50
2022/10/11 07:49:51;;;;;;;;;;;;;;;11.15;68.70;102207.34;5067658;28;19924;-54
2022/10/11 07:52:16;;;;;;;;;;;;;;;11.18;68.50;102216.00;5063278;28;20131;-51
2022/10/11 07:54:42;;;;;;;;;;;;;;;11.20;68.50;102211.53;5067502;28;19924;-52
2022/10/11 07:57:07;;;;;;;;;;;;;;;11.25;68.63;102217.50;5064748;28;19928;-52
2022/10/11 07:59:32;;;;;;;;;;;;;;;11.28;68.47;102220.00;5074043;28;19920;-53
2022/10/11 08:01:57;;;;;;;;;;;;;;;11.31;68.61;102219.06;5068457;28;19942;-51
2022/10/11 08:04:23;;;;;;;;;;;;;;;11.33;68.49;102221.63;5074171;28;19924;-54
2022/10/11 08:06:48;;;;;;;;;;;;;;;11.36;68.37;102221.50;5073600;28;19921;-50
2022/10/11 08:09:13;;;;;;;;;;;;;;;11.40;68.50;102215.22;5076902;28;20007;-51
2022/10/11 08:11:39;;;;;;;;;;;;;;;11.41;68.38;102217.78;5077990;28;19924;-52
2022/10/11 08:14:07;;;;;;;;;;;;;;;11.47;68.28;102224.59;5063542;28;19978;-50
2022/10/11 08:16:33;;;;;;;;;;;;;;;11.51;68.47;102227.97;5060008;28;20416;-51
2022/10/11 08:18:59;;;;;;;;;;;;;;;11.55;68.25;102225.19;5065170;28;19925;-51
2022/10/11 08:21:25;;;;;;;;;;;;;;;11.57;68.18;102218.03;5066445;28;19930;-51
2022/10/11 08:23:51;;;;;;;;;;;;;;;11.62;68.14;102223.16;5065375;28;19928;-51
2022/10/11 08:26:16;;;;;;;;;;;;;;;11.67;68.01;102225.63;5067412;28;19959;-51
2022/10/11 08:28:41;;;;;;;;;;;;;;;11.71;68.09;102224.59;5066032;28;20070;-50
2022/10/11 08:31:07;;;;;;;;;;;;;;;11.76;68.09;102227.03;5065766;28;19924;-50
2022/10/11 08:33:32;;;;;;;;;;;;;;;11.80;67.87;102226.84;5064995;28;20045;-51
2022/10/11 08:35:57;;;;;;;;;;;;;;;11.84;68.14;102227.59;5070957;28;20396;-52
2022/10/11 08:38:23;;;;;;;;;;;;;;;11.90;67.90;102230.00;5073364;28;20015;-51
2022/10/11 08:40:58;;;;;;;;;;;;;;;11.96;67.96;102235.00;5076302;28;20313;-50
2022/10/11 08:43:40;;;;;;;;;;;;;;;12.02;67.65;102218.97;5075262;28;19921;-53
2022/10/11 08:46:06;;;;;;;;;;;;;;;12.09;67.46;102237.22;5070387;28;20559;-52
2022/10/11 08:48:45;;;;;;;;;;;;;;;12.13;67.53;102231.75;5073908;28;20019;-53
2022/10/11 08:51:29;;;;;;;;;;;;;;;12.17;67.38;102232.47;5074234;28;19930;-51
2022/10/11 08:53:54;;;;;;;;;;;;;;;12.20;67.11;102232.34;5076374;28;19925;-52
2022/10/11 08:56:21;;;;;;;;;;;;;;;12.24;67.17;102246.28;5078723;28;19935;-51
2022/10/11 08:59:09;;;;;;;;;;;;;;;12.26;67.09;102241.78;5073467;28;19943;-53
2022/10/11 09:01:35;;;;;;;;;;;;;;;12.30;66.95;102254.78;5040232;28;19924;-50
2022/10/11 09:04:01;;;;;;;;;;;;;;;12.35;66.71;102246.69;5069606;28;20332;-51
2022/10/11 09:06:44;;;;;;;;;;;;;;;12.40;66.74;102250.00;5068779;28;19974;-52
2022/10/11 09:09:15;;;;;;;;;;;;;;;12.45;66.61;102253.31;5069352;28;19955;-50
2022/10/11 09:11:53;;;;;;;;;;;;;;;12.52;66.16;102255.69;5067030;28;19985;-50
2022/10/11 09:14:27;;;;;;;;;;;;;;;12.57;66.07;102256.38;5066793;28;20462;-51
2022/10/11 09:16:53;;;;;;;;;;;;;;;12.62;66.02;102263.16;5067878;28;19926;-50
2022/10/11 09:19:36;;;;;;;;;;;;;;;12.68;65.82;102262.03;5066223;28;19916;-51
2022/10/11 09:22:34;;;;;;;;;;;;;;;12.72;65.65;102271.56;5068331;28;19942;-51
2022/10/11 09:25:22;;;;;;;;;;;;;;;12.79;65.58;102270.34;5035126;28;20409;-51
2022/10/11 09:27:48;;;;;;;;;;;;;;;12.84;65.32;102269.31;5065822;28;19977;-51
2022/10/11 09:30:15;;;;;;;;;;;;;;;12.91;65.21;102271.63;5068144;28;19924;-50
2022/10/11 09:32:43;;;;;;;;;;;;;;;12.99;65.12;102273.94;5069743;28;19917;-53
2022/10/11 09:35:13;;;;;;;;;;;;;;;13.03;64.87;102274.66;5073944;28;20419;-51
2022/10/11 09:37:52;;;;;;;;;;;;;;;13.07;64.58;102265.69;5069908;28;19970;-51
2022/10/11 09:40:34;;;;;;;;;;;;;;;13.15;64.20;102273.25;5071824;28;19921;-51
2022/10/11 09:42:59;;;;;;;;;;;;;;;13.18;64.03;102270.50;5063628;28;19916;-50
2022/10/11 09:45:24;;;;;;;;;;;;;;;13.25;63.63;102279.84;5065008;28;19928;-51
2022/10/11 09:47:51;;;;;;;;;;;;;;;13.27;63.26;102273.59;5066533;28;19974;-50
2022/10/11 09:50:22;;;;;;;;;;;;;;;13.30;63.04;102277.03;5067459;28;20278;-51
2022/10/11 09:52:48;;;;;;;;;;;;;;;13.34;62.56;102273.28;5068807;28;20001;-50
2022/10/11 09:55:28;;;;;;;;;;;;;;;13.38;62.06;102281.03;5065855;28;20053;-51
2022/10/11 09:57:54;;;;;;;;;;;;;;;13.40;61.90;102268.63;5069938;28;19926;-50
2022/10/11 10:00:19;;;;;;;;;;;;;;;13.46;62.05;102287.78;5064037;28;19928;-50
2022/10/11 10:02:47;;;;;;;;;;;;;;;13.50;61.50;102278.78;5062065;28;19932;-50
2022/10/11 10:05:17;;;;;;;;;;;;;;;13.52;61.43;102292.81;5067109;28;19999;-50
2022/10/11 10:08:01;;;;;;;;;;;;;;;13.57;60.69;102291.66;5060623;28;19925;-51
2022/10/11 10:10:38;;;;;;;;;;;;;;;13.59;60.12;102283.66;5067147;28;19924;-50
2022/10/11 10:13:05;;;;;;;;;;;;;;;13.64;59.78;102291.38;5062863;28;19924;-53
2022/10/11 10:15:32;;;;;;;;;;;;;;;13.65;58.84;102283.38;5064389;28;20418;-50
2022/10/11 10:17:57;;;;;;;;;;;;;;;13.69;58.99;102311.38;5068445;28;19920;-52
2022/10/11 10:20:26;;;;;;;;;;;;;;;13.71;58.73;102304.25;5065146;28;19994;-51
2022/10/11 10:22:51;;;;;;;;;;;;;;;13.76;58.51;102287.31;5064620;28;19921;-53
2022/10/11 10:25:31;;;;;;;;;;;;;;;13.77;58.44;102286.38;5062124;28;19932;-50
2022/10/11 10:27:58;;;;;;;;;;;;;;;13.80;58.07;102294.19;5066161;28;20028;-50
2022/10/11 10:30:24;;;;;;;;;;;;;;;13.83;58.08;102299.34;5073861;28;20392;-53
2022/10/11 10:32:53;;;;;;;;;;;;;;;13.86;58.18;102307.09;5064652;28;19916;-51
2022/10/11 10:35:21;;;;;;;;;;;;;;;13.87;57.84;102309.69;5069864;28;20192;-51
2022/10/11 10:37:59;;;;;;;;;;;;;;;13.91;57.18;102299.81;5065413;28;19927;-50
2022/10/11 10:40:31;;;;;;;;;;;;;;;13.96;57.16;102297.81;5067601;28;19958;-52
2022/10/11 10:42:56;;;;;;;;;;;;;;;13.98;56.88;102306.56;5063635;28;20297;-50
2022/10/11 10:45:27;;;;;;;;;;;;;;;14.02;56.90;102307.25;5065066;28;20238;-51
2022/10/11 10:47:55;;;;;;;;;;;;;;;14.06;56.44;102302.66;5064718;28;19927;-51
2022/10/11 10:50:23;;;;;;;;;;;;;;;14.08;56.26;102327.28;5070507;28;20022;-50
2022/10/11 10:52:49;;;;;;;;;;;;;;;14.11;55.76;102312.09;5064933;28;19919;-51
2022/10/11 10:55:33;;;;;;;;;;;;;;;14.13;55.44;102298.81;5061294;28;19920;-54
2022/10/11 10:58:09;;;;;;;;;;;;;;;14.15;55.33;102307.50;5062914;28;19916;-51
2022/10/11 11:00:40;;;;;;;;;;;;;;;14.20;55.27;102309.97;5065826;28;20351;-51
2022/10/11 11:03:09;;;;;;;;;;;;;;;14.24;55.22;102298.25;5070072;28;20011;-50
2022/10/11 11:05:41;;;;;;;;;;;;;;;14.27;55.05;102301.66;5069393;28;19928;-51
2022/10/11 11:08:14;;;;;;;;;;;;;;;14.32;55.18;102304.06;5065357;28;19916;-52
2022/10/11 11:10:53;;;;;;;;;;;;;;;14.34;55.12;102307.50;5069640;28;19917;-54
2022/10/11 11:13:22;;;;;;;;;;;;;;;14.36;55.12;102310.06;5068859;28;19919;-51
2022/10/11 11:15:53;;;;;;;;;;;;;;;14.40;54.50;102312.47;5070094;28;20015;-51
2022/10/11 11:18:24;;;;;;;;;;;;;;;14.43;54.25;102306.19;5067465;28;19976;-53
2022/10/11 11:21:08;;;;;;;;;;;;;;;14.45;54.09;102314.91;5068645;28;20347;-52
2022/10/11 11:23:45;;;;;;;;;;;;;;;14.44;53.95;102305.25;5064997;28;19928;-53
2022/10/11 11:26:16;;;;;;;;;;;;;;;14.45;54.06;102310.47;5065666;28;19931;-54
2022/10/11 11:29:02;;;;;;;;;;;;;;;14.47;53.70;102303.31;5067883;28;19920;-53
2022/10/11 11:31:36;;;;;;;;;;;;;;;14.50;53.68;102302.28;5066475;28;19917;-53
2022/10/11 11:34:01;;;;;;;;;;;;;;;14.52;53.73;102300.44;5065417;28;20174;-51
2022/10/11 11:36:36;;;;;;;;;;;;;;;14.56;53.72;102307.31;5067466;28;19925;-52
2022/10/11 11:39:03;;;;;;;;;;;;;;;14.58;53.69;102293.97;5067481;28;19967;-51
2022/10/11 11:41:58;;;;;;;;;;;;;;;14.61;53.66;102299.13;5064312;28;19931;-53
2022/10/11 11:44:43;;;;;;;;;;;;;;;14.63;53.44;102297.25;5024386;28;20003;-50
2022/10/11 11:47:09;;;;;;;;;;;;;;;14.66;53.48;102296.22;5063343;28;19928;-51
2022/10/11 11:49:36;;;;;;;;;;;;;;;14.71;53.26;102294.25;5067477;28;19921;-52
2022/10/11 11:52:03;;;;;;;;;;;;;;;14.76;53.33;102289.56;5064512;28;19920;-54
2022/10/11 11:54:50;;;;;;;;;;;;;;;14.80;53.30;102290.28;5067537;28;19931;-51
2022/10/11 11:57:21;;;;;;;;;;;;;;;14.84;53.33;102298.00;5065844;28;19916;-51
2022/10/11 11:59:58;;;;;;;;;;;;;;;14.89;53.02;102288.03;5066862;28;19920;-51
2022/10/11 12:02:26;;;;;;;;;;;;;;;14.96;52.70;102300.94;5064561;28;19934;-51
2022/10/11 12:04:52;;;;;;;;;;;;;;;14.96;52.62;102287.69;5069205;28;20040;-51
2022/10/11 12:07:21;;;;;;;;;;;;;;;14.97;52.38;102289.41;5069769;28;20023;-51
2022/10/11 12:09:50;;;;;;;;;;;;;;;14.98;52.44;102288.47;5070543;28;20385;-51
2022/10/11 12:12:30;;;;;;;;;;;;;;;15.02;52.33;102297.97;5071587;28;20002;-52
2022/10/11 12:15:08;;;;;;;;;;;;;;;15.03;51.20;102294.41;5072024;28;19920;-53
2022/10/11 12:17:54;;;;;;;;;;;;;;;15.06;51.37;102299.50;5071453;28;20456;-51
2022/10/11 12:20:30;;;;;;;;;;;;;;;15.09;51.44;102299.34;5069501;28;20015;-51
2022/10/11 12:23:14;;;;;;;;;;;;;;;15.13;51.48;102292.97;5071457;28;19916;-49
2022/10/11 12:25:41;;;;;;;;;;;;;;;15.15;51.24;102292.88;5072059;28;20507;-54
2022/10/11 12:28:24;;;;;;;;;;;;;;;15.18;50.66;102293.59;5075230;28;20343;-51
2022/10/11 12:30:52;;;;;;;;;;;;;;;15.20;50.74;102282.91;5075522;28;19920;-52
2022/10/11 12:33:29;;;;;;;;;;;;;;;15.20;50.50;102288.19;5071263;28;19966;-51
2022/10/11 12:35:55;;;;;;;;;;;;;;;15.21;50.41;102284.63;5070923;28;19916;-51
2022/10/11 12:38:23;;;;;;;;;;;;;;;15.25;50.30;102291.47;5064441;28;19970;-52
2022/10/11 12:40:56;;;;;;;;;;;;;;;15.29;50.13;102286.84;5071598;28;19920;-50
2022/10/11 12:43:24;;;;;;;;;;;;;;;15.34;50.04;102292.78;5068973;28;19921;-51